Time;durP1;ratioP1;P1;durP2;ratioP2;P2;SDS_P1;SDS_P2;PMS_P1;PMS_P2;Temp;Humidity;BMP_temperature;BMP_pressure;BME280_temperature;BME280_humidity;BME280_pressure;Samples;Min_cycle;Max_cycle;Signal;HPM_P1;HPM_P2
2023/01/27 00:02:18;;;;;;;28.40;19.27;;;;;;;;;;5070559;28;20448;-75
2023/01/27 00:04:46;;;;;;;25.50;18.30;;;;;;;;;;5070956;28;20468;-75
2023/01/27 00:07:14;;;;;;;30.97;21.00;;;;;;;;;;5070388;28;20471;-75
2023/01/27 00:09:41;;;;;;;27.13;19.63;;;;;;;;;;5069492;28;20968;-76
2023/01/27 00:14:57;;;;;;;24.37;17.33;;;;;;;;;;5069319;28;20428;-75
2023/01/27 00:17:24;;;;;;;25.60;19.13;;;;;;;;;;5051078;28;20445;-75
2023/01/27 00:19:52;;;;;;;24.23;18.07;;;;;;;;;;5050642;28;20476;-75
2023/01/27 00:25:04;;;;;;;23.17;16.83;;;;;;;;;;5050465;28;20476;-75
2023/01/27 00:27:31;;;;;;;22.47;16.90;;;;;;;;;;5051230;28;20456;-75
2023/01/27 00:29:58;;;;;;;25.40;18.13;;;;;;;;;;5051659;28;20469;-74
2023/01/27 00:35:11;;;;;;;29.67;18.93;;;;;;;;;;5052870;28;20429;-75
2023/01/27 00:37:38;;;;;;;29.73;19.30;;;;;;;;;;5054473;28;20817;-75
2023/01/27 00:40:06;;;;;;;25.10;17.20;;;;;;;;;;5052325;28;20469;-74
2023/01/27 00:42:33;;;;;;;26.00;20.80;;;;;;;;;;5051592;28;20519;-75
2023/01/27 00:47:44;;;;;;;26.60;19.10;;;;;;;;;;5050374;28;20425;-74
2023/01/27 00:50:13;;;;;;;25.20;18.17;;;;;;;;;;5050249;28;20948;-74
2023/01/27 00:52:40;;;;;;;25.80;18.97;;;;;;;;;;5050377;28;20458;-75
2023/01/27 00:55:09;;;;;;;32.57;19.57;;;;;;;;;;5050366;28;20442;-75
2023/01/27 00:57:36;;;;;;;26.90;19.80;;;;;;;;;;5049702;28;21052;-74
2023/01/27 01:00:04;;;;;;;27.10;19.10;;;;;;;;;;5049249;28;21003;-75
2023/01/27 01:02:31;;;;;;;30.90;20.07;;;;;;;;;;5049469;28;20456;-74
2023/01/27 01:04:58;;;;;;;29.33;19.97;;;;;;;;;;5056823;28;20468;-74
2023/01/27 01:07:27;;;;;;;27.13;20.20;;;;;;;;;;5069896;28;20937;-75
2023/01/27 01:09:54;;;;;;;24.93;18.07;;;;;;;;;;5069931;28;20495;-75
2023/01/27 01:12:21;;;;;;;28.10;19.73;;;;;;;;;;5069916;28;20441;-74
2023/01/27 01:14:48;;;;;;;28.47;20.47;;;;;;;;;;5069457;28;20793;-74
2023/01/27 01:17:15;;;;;;;26.03;17.60;;;;;;;;;;5069541;28;20453;-74
2023/01/27 01:19:42;;;;;;;30.57;19.73;;;;;;;;;;5070026;28;20464;-74
2023/01/27 01:22:09;;;;;;;28.53;21.13;;;;;;;;;;5069900;28;20505;-75
2023/01/27 01:24:37;;;;;;;25.87;20.00;;;;;;;;;;5069759;28;20429;-74
2023/01/27 01:27:04;;;;;;;29.80;18.20;;;;;;;;;;5070236;28;20444;-74
2023/01/27 01:29:31;;;;;;;25.17;17.67;;;;;;;;;;5070291;28;21004;-74
2023/01/27 01:31:59;;;;;;;26.77;19.07;;;;;;;;;;5070235;28;20528;-75
2023/01/27 01:34:26;;;;;;;23.90;17.17;;;;;;;;;;5070202;28;20467;-74
2023/01/27 01:36:53;;;;;;;24.00;17.80;;;;;;;;;;5070169;28;20441;-74
2023/01/27 01:39:20;;;;;;;23.60;16.80;;;;;;;;;;5070144;28;20475;-75
2023/01/27 01:41:48;;;;;;;22.00;16.80;;;;;;;;;;5070048;28;20451;-74
2023/01/27 01:44:22;;;;;;;27.73;18.10;;;;;;;;;;5069694;28;20440;-75
2023/01/27 01:46:49;;;;;;;24.63;17.83;;;;;;;;;;5069769;28;20535;-75
2023/01/27 01:49:17;;;;;;;23.87;16.47;;;;;;;;;;5069935;28;20469;-74
2023/01/27 01:51:46;;;;;;;27.20;18.50;;;;;;;;;;5069819;28;20449;-74
2023/01/27 01:54:15;;;;;;;24.20;17.37;;;;;;;;;;5069771;28;20447;-74
2023/01/27 01:56:44;;;;;;;24.53;16.23;;;;;;;;;;5069507;28;20448;-74
2023/01/27 01:59:15;;;;;;;20.20;15.30;;;;;;;;;;5069331;28;20468;-74
2023/01/27 02:01:42;;;;;;;21.50;15.53;;;;;;;;;;5069581;28;20884;-74
2023/01/27 02:04:11;;;;;;;26.57;15.13;;;;;;;;;;5069414;28;20459;-75
2023/01/27 02:06:41;;;;;;;21.63;15.53;;;;;;;;;;5069261;28;20489;-75
2023/01/27 02:09:08;;;;;;;20.40;15.87;;;;;;;;;;5068994;28;21074;-74
2023/01/27 02:11:35;;;;;;;21.70;14.30;;;;;;;;;;5069368;28;20936;-75
2023/01/27 02:14:02;;;;;;;21.30;13.90;;;;;;;;;;5069789;28;20449;-75
2023/01/27 02:16:31;;;;;;;17.60;13.27;;;;;;;;;;5069462;28;20783;-74
2023/01/27 02:18:58;;;;;;;18.80;13.00;;;;;;;;;;5069100;28;20861;-74
2023/01/27 02:21:25;;;;;;;18.40;13.00;;;;;;;;;;5068924;28;20463;-75
2023/01/27 02:23:57;;;;;;;20.30;13.40;;;;;;;;;;5068732;28;20451;-75
2023/01/27 02:26:28;;;;;;;16.83;12.13;;;;;;;;;;5069075;28;20499;-75
2023/01/27 02:28:56;;;;;;;16.93;12.30;;;;;;;;;;5069616;28;20551;-75
2023/01/27 02:31:23;;;;;;;16.30;12.43;;;;;;;;;;5073058;28;20481;-75
2023/01/27 02:33:51;;;;;;;16.20;11.83;;;;;;;;;;5072412;28;21003;-75
2023/01/27 02:36:19;;;;;;;16.20;12.17;;;;;;;;;;5072712;28;20441;-74
2023/01/27 02:38:47;;;;;;;17.67;12.50;;;;;;;;;;5072731;28;20455;-75
2023/01/27 02:41:16;;;;;;;17.47;11.80;;;;;;;;;;5072697;28;20444;-75
2023/01/27 02:43:44;;;;;;;13.37;10.90;;;;;;;;;;5072216;28;20521;-74
2023/01/27 02:46:11;;;;;;;14.97;11.80;;;;;;;;;;5071959;28;20983;-74
2023/01/27 02:48:38;;;;;;;15.30;12.43;;;;;;;;;;5072274;28;20448;-74
2023/01/27 02:51:05;;;;;;;16.27;12.60;;;;;;;;;;5072045;28;20779;-75
2023/01/27 02:53:33;;;;;;;17.70;12.57;;;;;;;;;;5072280;28;20437;-74
2023/01/27 02:56:00;;;;;;;16.70;13.07;;;;;;;;;;5071971;28;20983;-74
2023/01/27 02:58:27;;;;;;;15.80;13.43;;;;;;;;;;5072400;28;20452;-74
2023/01/27 03:00:55;;;;;;;16.30;13.63;;;;;;;;;;5071952;28;20484;-75
2023/01/27 03:03:22;;;;;;;13.90;11.23;;;;;;;;;;5072191;28;20853;-74
2023/01/27 03:05:49;;;;;;;15.60;11.00;;;;;;;;;;5072132;28;20472;-74
2023/01/27 03:08:16;;;;;;;19.07;13.87;;;;;;;;;;5071837;28;20453;-75
2023/01/27 03:10:43;;;;;;;16.37;13.40;;;;;;;;;;5071897;28;20460;-75
2023/01/27 03:13:10;;;;;;;16.43;14.70;;;;;;;;;;5072042;28;20437;-74
2023/01/27 03:18:24;;;;;;;16.43;14.27;;;;;;;;;;5071489;28;20415;-74
2023/01/27 03:20:51;;;;;;;19.73;14.80;;;;;;;;;;5071554;28;20491;-74
2023/01/27 03:23:18;;;;;;;18.53;14.10;;;;;;;;;;5071229;28;20448;-74
2023/01/27 03:25:46;;;;;;;19.77;14.70;;;;;;;;;;5071594;28;20869;-74
2023/01/27 03:28:14;;;;;;;20.57;17.10;;;;;;;;;;5071709;28;20456;-74
2023/01/27 03:30:42;;;;;;;21.33;16.63;;;;;;;;;;5071843;28;20537;-74
2023/01/27 03:33:09;;;;;;;22.63;16.27;;;;;;;;;;5071167;28;20956;-74
2023/01/27 03:35:47;;;;;;;23.43;17.83;;;;;;;;;;5071727;28;20441;-75
2023/01/27 03:46:28;;;;;;;23.70;17.70;;;;;;;;;;5071394;28;20517;-74
2023/01/27 03:48:56;;;;;;;21.67;18.00;;;;;;;;;;5071374;28;20444;-75
2023/01/27 03:51:25;;;;;;;22.13;17.23;;;;;;;;;;5071177;28;20447;-74
2023/01/27 03:53:52;;;;;;;24.40;20.03;;;;;;;;;;5071210;28;20455;-75
2023/01/27 03:56:20;;;;;;;21.07;17.73;;;;;;;;;;5073718;28;20445;-73
2023/01/27 03:58:48;;;;;;;22.07;17.07;;;;;;;;;;5074728;28;20952;-75
2023/01/27 04:01:17;;;;;;;23.53;17.27;;;;;;;;;;5075264;28;20451;-74
2023/01/27 04:09:19;;;;;;;23.03;17.63;;;;;;;;;;5070837;28;20828;-75
2023/01/27 04:11:55;;;;;;;20.30;17.40;;;;;;;;;;5070857;28;20449;-74
2023/01/27 04:14:23;;;;;;;23.17;17.37;;;;;;;;;;5070839;28;20940;-75
2023/01/27 04:16:51;;;;;;;24.23;18.83;;;;;;;;;;5056402;28;20492;-74
2023/01/27 04:19:18;;;;;;;21.53;17.53;;;;;;;;;;5059969;28;20468;-74
2023/01/27 04:21:47;;;;;;;22.13;17.30;;;;;;;;;;5058312;28;20534;-74
2023/01/27 04:24:21;;;;;;;22.90;18.07;;;;;;;;;;5050320;28;20814;-74
2023/01/27 04:26:48;;;;;;;21.60;17.03;;;;;;;;;;5050403;28;20466;-74
2023/01/27 04:29:15;;;;;;;22.13;18.80;;;;;;;;;;5050074;28;21035;-75
2023/01/27 04:31:42;;;;;;;21.60;18.60;;;;;;;;;;5050344;28;20453;-75
2023/01/27 04:34:10;;;;;;;25.73;18.43;;;;;;;;;;5049968;28;20827;-75
2023/01/27 04:36:37;;;;;;;22.00;17.70;;;;;;;;;;5050125;28;20449;-75
2023/01/27 04:39:06;;;;;;;23.90;19.23;;;;;;;;;;5050119;28;20963;-74
2023/01/27 04:41:33;;;;;;;22.63;18.33;;;;;;;;;;5050039;28;20495;-75
2023/01/27 04:44:00;;;;;;;21.80;17.03;;;;;;;;;;5050373;28;20464;-75
2023/01/27 04:46:27;;;;;;;24.20;17.30;;;;;;;;;;5050213;28;20481;-75
2023/01/27 04:48:54;;;;;;;24.00;18.47;;;;;;;;;;5050430;28;20548;-74
2023/01/27 04:51:22;;;;;;;21.73;17.90;;;;;;;;;;5050444;28;20445;-75
2023/01/27 04:53:49;;;;;;;25.03;19.33;;;;;;;;;;5050303;28;20446;-75
2023/01/27 04:56:22;;;;;;;28.03;20.70;;;;;;;;;;5050491;28;20441;-75
2023/01/27 04:58:49;;;;;;;25.20;20.23;;;;;;;;;;5051653;28;20479;-74
2023/01/27 05:01:16;;;;;;;28.47;21.57;;;;;;;;;;5050217;28;20448;-74
2023/01/27 05:03:43;;;;;;;29.63;20.80;;;;;;;;;;5050518;28;20779;-75
2023/01/27 05:06:11;;;;;;;27.57;23.00;;;;;;;;;;5051838;28;20482;-75
2023/01/27 05:08:38;;;;;;;27.30;21.37;;;;;;;;;;5050724;28;20468;-75
2023/01/27 05:11:05;;;;;;;31.03;22.13;;;;;;;;;;5050198;28;20462;-74
2023/01/27 05:13:34;;;;;;;30.27;22.30;;;;;;;;;;5050084;28;20456;-75
2023/01/27 05:16:05;;;;;;;31.57;22.27;;;;;;;;;;5049880;28;20446;-75
2023/01/27 05:18:32;;;;;;;28.77;21.37;;;;;;;;;;5049979;28;20454;-75
2023/01/27 05:20:59;;;;;;;31.03;22.43;;;;;;;;;;5050150;28;20856;-75
2023/01/27 05:23:36;;;;;;;28.50;21.87;;;;;;;;;;5049800;28;20902;-74
2023/01/27 05:26:07;;;;;;;27.10;22.17;;;;;;;;;;5049917;28;20449;-75
2023/01/27 05:28:36;;;;;;;29.67;22.60;;;;;;;;;;5050546;28;20814;-74
2023/01/27 05:31:04;;;;;;;33.23;23.00;;;;;;;;;;5050003;28;20461;-74
2023/01/27 05:33:31;;;;;;;32.37;22.47;;;;;;;;;;5049465;28;20441;-74
2023/01/27 05:35:59;;;;;;;31.07;21.50;;;;;;;;;;5049840;28;20452;-75
2023/01/27 05:38:26;;;;;;;27.20;21.30;;;;;;;;;;5050237;28;20500;-75
2023/01/27 05:40:55;;;;;;;27.00;20.90;;;;;;;;;;5049702;28;20481;-74
2023/01/27 05:43:22;;;;;;;27.30;20.87;;;;;;;;;;5049425;28;20528;-74
2023/01/27 05:45:51;;;;;;;32.70;22.23;;;;;;;;;;5049833;28;20449;-75
2023/01/27 05:48:18;;;;;;;28.47;19.73;;;;;;;;;;5049743;28;20851;-76
2023/01/27 05:50:53;;;;;;;24.43;19.13;;;;;;;;;;5049197;28;20465;-74
2023/01/27 05:53:21;;;;;;;27.07;20.43;;;;;;;;;;5049286;28;20649;-74
2023/01/27 05:55:48;;;;;;;27.77;20.87;;;;;;;;;;5049418;28;20544;-74
2023/01/27 05:58:16;;;;;;;30.30;20.30;;;;;;;;;;5049267;28;20433;-75
2023/01/27 06:00:43;;;;;;;28.20;22.43;;;;;;;;;;5049629;28;20995;-74
2023/01/27 06:03:11;;;;;;;31.57;20.57;;;;;;;;;;5049490;28;20454;-74
2023/01/27 06:05:38;;;;;;;27.00;20.17;;;;;;;;;;5054623;28;20445;-74
2023/01/27 06:08:05;;;;;;;29.00;21.47;;;;;;;;;;5056512;28;20496;-75
2023/01/27 06:10:36;;;;;;;32.30;22.87;;;;;;;;;;5056465;28;20461;-74
2023/01/27 06:13:03;;;;;;;29.37;21.90;;;;;;;;;;5055162;28;20575;-75
2023/01/27 06:15:30;;;;;;;27.67;19.90;;;;;;;;;;5054876;28;20524;-74
2023/01/27 06:17:57;;;;;;;28.33;20.30;;;;;;;;;;5053327;28;20957;-74
2023/01/27 06:20:25;;;;;;;27.90;20.53;;;;;;;;;;5053541;28;20470;-75
2023/01/27 06:22:52;;;;;;;26.87;18.77;;;;;;;;;;5070633;28;20476;-75
2023/01/27 06:25:19;;;;;;;24.37;18.67;;;;;;;;;;5073237;28;20464;-75
2023/01/27 06:27:47;;;;;;;28.10;19.73;;;;;;;;;;5072933;28;20484;-74
2023/01/27 06:30:14;;;;;;;26.60;19.37;;;;;;;;;;5073447;28;20472;-75
2023/01/27 06:32:41;;;;;;;27.07;19.20;;;;;;;;;;5073062;28;20471;-74
2023/01/27 06:35:09;;;;;;;28.53;20.43;;;;;;;;;;5073045;28;20483;-75
2023/01/27 06:37:37;;;;;;;24.00;19.03;;;;;;;;;;5072667;28;20472;-75
2023/01/27 06:40:04;;;;;;;22.70;17.87;;;;;;;;;;5072919;28;20866;-75
2023/01/27 06:42:31;;;;;;;26.07;18.40;;;;;;;;;;5072656;28;20472;-76
2023/01/27 06:44:58;;;;;;;26.40;19.70;;;;;;;;;;5072897;28;20440;-76
2023/01/27 06:47:25;;;;;;;23.43;19.07;;;;;;;;;;5072732;28;20479;-74
2023/01/27 06:49:52;;;;;;;24.97;18.43;;;;;;;;;;5072393;28;20469;-75
2023/01/27 06:52:19;;;;;;;23.83;17.53;;;;;;;;;;5072692;28;20603;-74
2023/01/27 06:54:48;;;;;;;25.03;18.37;;;;;;;;;;5072287;28;20528;-75
2023/01/27 06:57:15;;;;;;;22.83;18.47;;;;;;;;;;5072876;28;20444;-74
2023/01/27 06:59:42;;;;;;;26.20;19.43;;;;;;;;;;5072490;28;20496;-75
2023/01/27 07:02:10;;;;;;;27.63;18.90;;;;;;;;;;5072483;28;20437;-74
2023/01/27 07:04:37;;;;;;;25.40;17.43;;;;;;;;;;5072445;28;20448;-74
2023/01/27 07:07:04;;;;;;;23.07;17.77;;;;;;;;;;5072196;28;20480;-74
2023/01/27 07:09:31;;;;;;;24.77;17.50;;;;;;;;;;5072124;28;20460;-75
2023/01/27 07:11:59;;;;;;;23.70;17.60;;;;;;;;;;5072343;28;20989;-75
2023/01/27 07:14:26;;;;;;;25.83;17.67;;;;;;;;;;5072079;28;20444;-74
2023/01/27 07:16:53;;;;;;;21.80;16.30;;;;;;;;;;5071690;28;20443;-74
2023/01/27 07:19:20;;;;;;;28.23;17.80;;;;;;;;;;5072030;28;20840;-75
2023/01/27 07:21:47;;;;;;;23.33;16.97;;;;;;;;;;5072178;28;20479;-74
2023/01/27 07:24:14;;;;;;;21.83;16.53;;;;;;;;;;5071457;28;20444;-74
2023/01/27 07:26:43;;;;;;;23.73;17.23;;;;;;;;;;5072407;28;20452;-75
2023/01/27 07:29:12;;;;;;;22.40;17.07;;;;;;;;;;5071929;28;20853;-74
2023/01/27 07:31:39;;;;;;;23.10;17.37;;;;;;;;;;5071548;28;20436;-74
2023/01/27 07:34:06;;;;;;;24.40;16.50;;;;;;;;;;5071162;28;20932;-75
2023/01/27 07:36:33;;;;;;;22.20;15.90;;;;;;;;;;5071192;28;20441;-74
2023/01/27 07:39:00;;;;;;;24.73;16.90;;;;;;;;;;5068337;28;20453;-74
2023/01/27 07:41:27;;;;;;;23.90;17.27;;;;;;;;;;5067295;28;20463;-75
2023/01/27 07:43:54;;;;;;;18.63;16.13;;;;;;;;;;5071341;28;20442;-75
2023/01/27 07:46:23;;;;;;;21.40;15.90;;;;;;;;;;5072218;28;20641;-75
2023/01/27 07:48:50;;;;;;;17.17;14.23;;;;;;;;;;5070919;28;20606;-75
2023/01/27 07:51:17;;;;;;;20.10;14.60;;;;;;;;;;5071396;28;20444;-75
2023/01/27 07:53:44;;;;;;;21.13;15.70;;;;;;;;;;5071299;28;20452;-74
2023/01/27 07:56:11;;;;;;;20.33;14.03;;;;;;;;;;5064513;28;20543;-74
2023/01/27 07:58:38;;;;;;;18.57;13.87;;;;;;;;;;5072636;28;20948;-74
2023/01/27 08:01:06;;;;;;;23.40;15.07;;;;;;;;;;5072835;28;20503;-75
2023/01/27 08:03:35;;;;;;;18.93;13.17;;;;;;;;;;5070535;28;20480;-74
2023/01/27 08:06:05;;;;;;;18.03;13.77;;;;;;;;;;5071404;28;20870;-74
2023/01/27 08:08:32;;;;;;;19.53;14.40;;;;;;;;;;5071094;28;20640;-75
2023/01/27 08:11:00;;;;;;;17.80;13.50;;;;;;;;;;5071181;28;20476;-75
2023/01/27 08:13:27;;;;;;;18.83;14.33;;;;;;;;;;5071171;28;20864;-75
2023/01/27 08:15:58;;;;;;;18.80;13.30;;;;;;;;;;5075472;28;20471;-75
2023/01/27 08:18:25;;;;;;;19.80;13.07;;;;;;;;;;5071557;28;20936;-74
2023/01/27 08:20:53;;;;;;;19.70;13.17;;;;;;;;;;5071461;28;20464;-75
2023/01/27 08:23:21;;;;;;;18.73;13.80;;;;;;;;;;5071255;28;20445;-74
2023/01/27 08:25:51;;;;;;;19.57;14.80;;;;;;;;;;5071099;28;20477;-74
2023/01/27 08:28:19;;;;;;;18.00;13.20;;;;;;;;;;5070342;28;20530;-74
2023/01/27 08:30:46;;;;;;;19.07;13.13;;;;;;;;;;5070677;28;20468;-74
2023/01/27 08:33:13;;;;;;;17.57;13.10;;;;;;;;;;5050847;28;20445;-75
2023/01/27 08:35:43;;;;;;;17.97;13.03;;;;;;;;;;5050646;28;20456;-74
2023/01/27 08:38:12;;;;;;;20.60;14.53;;;;;;;;;;5050786;28;20446;-74
2023/01/27 08:40:39;;;;;;;22.70;14.00;;;;;;;;;;5050650;28;20476;-74
2023/01/27 08:43:06;;;;;;;20.40;13.87;;;;;;;;;;5050746;28;20972;-74
2023/01/27 08:45:34;;;;;;;21.87;13.83;;;;;;;;;;5050603;28;20453;-74
2023/01/27 08:48:01;;;;;;;19.87;13.87;;;;;;;;;;5050434;28;20489;-75
2023/01/27 08:50:29;;;;;;;18.80;13.53;;;;;;;;;;5050630;28;20461;-75
2023/01/27 08:52:57;;;;;;;20.80;14.00;;;;;;;;;;5050586;28;20532;-74
2023/01/27 08:55:26;;;;;;;23.50;13.70;;;;;;;;;;5050351;28;20453;-74
2023/01/27 08:57:53;;;;;;;19.90;12.73;;;;;;;;;;5049974;28;20907;-75
2023/01/27 09:00:21;;;;;;;19.00;13.43;;;;;;;;;;5050445;28;20465;-74
2023/01/27 09:02:49;;;;;;;18.40;12.37;;;;;;;;;;5049916;28;20941;-74
2023/01/27 09:05:17;;;;;;;20.10;11.80;;;;;;;;;;5049988;28;20552;-74
2023/01/27 09:07:44;;;;;;;19.10;13.83;;;;;;;;;;5049732;28;20571;-74
2023/01/27 09:10:12;;;;;;;19.30;13.10;;;;;;;;;;5049738;28;20483;-75
2023/01/27 09:12:40;;;;;;;16.63;12.27;;;;;;;;;;5049995;28;20532;-75
2023/01/27 09:15:08;;;;;;;17.60;12.20;;;;;;;;;;5050048;28;20444;-74
2023/01/27 09:17:35;;;;;;;21.03;14.20;;;;;;;;;;5050058;28;20442;-74
2023/01/27 09:20:02;;;;;;;22.10;13.50;;;;;;;;;;5050393;28;20469;-75
2023/01/27 09:22:29;;;;;;;19.37;13.33;;;;;;;;;;5049944;28;20528;-74
2023/01/27 09:24:56;;;;;;;17.87;13.67;;;;;;;;;;5050627;28;20444;-73
2023/01/27 09:27:23;;;;;;;22.47;13.77;;;;;;;;;;5049713;28;20961;-74
2023/01/27 09:29:51;;;;;;;23.00;15.33;;;;;;;;;;5050414;28;20469;-74
2023/01/27 09:32:18;;;;;;;21.40;13.77;;;;;;;;;;5050097;28;20851;-73
2023/01/27 09:34:45;;;;;;;21.03;14.50;;;;;;;;;;5050092;28;20445;-75
2023/01/27 09:37:13;;;;;;;20.53;14.23;;;;;;;;;;5051066;28;20459;-75
2023/01/27 09:39:41;;;;;;;21.10;15.23;;;;;;;;;;5053880;28;20551;-74
2023/01/27 09:42:20;;;;;;;22.83;14.47;;;;;;;;;;5055402;28;20441;-74
2023/01/27 09:45:12;;;;;;;22.07;15.40;;;;;;;;;;5053614;28;20437;-75
2023/01/27 09:47:53;;;;;;;23.07;14.10;;;;;;;;;;5053942;28;20465;-74
2023/01/27 09:50:25;;;;;;;21.47;15.10;;;;;;;;;;5053899;28;20989;-75
2023/01/27 09:53:07;;;;;;;25.67;14.37;;;;;;;;;;5053574;28;20437;-74
2023/01/27 09:55:39;;;;;;;24.93;14.50;;;;;;;;;;5053447;28;20429;-76
2023/01/27 09:58:09;;;;;;;27.30;15.33;;;;;;;;;;5053202;28;20445;-75
2023/01/27 10:00:46;;;;;;;26.27;15.80;;;;;;;;;;5053375;28;20996;-74
2023/01/27 10:03:42;;;;;;;24.10;15.63;;;;;;;;;;5053798;28;20441;-75
2023/01/27 10:06:27;;;;;;;23.00;14.10;;;;;;;;;;5032646;28;20448;-75
2023/01/27 10:09:04;;;;;;;22.27;13.83;;;;;;;;;;5073602;28;20480;-75
2023/01/27 10:11:35;;;;;;;21.73;14.30;;;;;;;;;;5074131;28;20451;-74
2023/01/27 10:14:11;;;;;;;21.67;13.90;;;;;;;;;;5073379;28;20455;-74
2023/01/27 10:16:45;;;;;;;20.47;13.07;;;;;;;;;;5073424;28;20456;-75
2023/01/27 10:19:21;;;;;;;19.40;13.30;;;;;;;;;;5073627;28;20499;-74
2023/01/27 10:21:53;;;;;;;20.03;13.80;;;;;;;;;;5072991;28;20456;-75
2023/01/27 10:24:26;;;;;;;21.63;17.00;;;;;;;;;;5072876;28;20448;-75
2023/01/27 10:26:56;;;;;;;17.77;12.60;;;;;;;;;;5073571;28;20924;-75
2023/01/27 10:29:25;;;;;;;16.00;11.47;;;;;;;;;;5072791;28;20571;-75
2023/01/27 10:31:56;;;;;;;20.67;12.87;;;;;;;;;;5073025;28;20466;-75
2023/01/27 10:34:27;;;;;;;20.63;12.67;;;;;;;;;;5073023;28;20552;-75
2023/01/27 10:37:01;;;;;;;21.80;12.87;;;;;;;;;;5073236;28;20551;-75
2023/01/27 10:39:32;;;;;;;18.10;12.93;;;;;;;;;;5072729;28;20983;-75
2023/01/27 10:42:03;;;;;;;18.77;11.83;;;;;;;;;;5073504;28;20440;-75
2023/01/27 10:44:47;;;;;;;19.10;11.73;;;;;;;;;;5077377;28;20439;-75
2023/01/27 10:47:19;;;;;;;18.97;11.23;;;;;;;;;;5097825;28;20428;-75
2023/01/27 10:49:50;;;;;;;18.30;12.40;;;;;;;;;;5097103;28;20489;-75
2023/01/27 10:52:20;;;;;;;15.40;11.90;;;;;;;;;;5090989;28;20452;-74
2023/01/27 10:54:49;;;;;;;16.43;11.43;;;;;;;;;;5077971;28;20449;-75
2023/01/27 10:57:20;;;;;;;16.60;11.67;;;;;;;;;;5073843;28;20452;-75
2023/01/27 10:59:51;;;;;;;14.57;11.30;;;;;;;;;;5072751;28;20471;-75
2023/01/27 11:02:23;;;;;;;15.40;10.97;;;;;;;;;;5072554;28;20471;-75
2023/01/27 11:04:53;;;;;;;17.93;12.40;;;;;;;;;;5072736;28;20433;-74
2023/01/27 11:07:21;;;;;;;18.13;12.53;;;;;;;;;;5073954;28;20449;-75
2023/01/27 11:09:49;;;;;;;16.47;11.00;;;;;;;;;;5073936;28;20499;-76
2023/01/27 11:12:16;;;;;;;17.63;11.60;;;;;;;;;;5073220;28;20441;-75
2023/01/27 11:14:46;;;;;;;16.60;11.73;;;;;;;;;;5073816;28;20483;-76
2023/01/27 11:17:15;;;;;;;17.83;10.50;;;;;;;;;;5072197;28;20521;-75
2023/01/27 11:19:51;;;;;;;17.87;11.63;;;;;;;;;;5065311;28;20456;-76
2023/01/27 11:22:20;;;;;;;17.90;11.17;;;;;;;;;;5072044;28;20475;-75
2023/01/27 11:24:52;;;;;;;13.37;10.03;;;;;;;;;;5057745;28;20442;-76
2023/01/27 11:27:25;;;;;;;15.50;11.60;;;;;;;;;;5053347;28;20828;-76
2023/01/27 11:29:55;;;;;;;16.90;11.17;;;;;;;;;;5053898;28;20904;-76
2023/01/27 11:32:29;;;;;;;14.23;10.90;;;;;;;;;;5052247;28;20548;-76
2023/01/27 11:35:02;;;;;;;14.10;9.70;;;;;;;;;;5052094;28;20966;-75
2023/01/27 11:37:31;;;;;;;18.90;11.87;;;;;;;;;;5052120;28;20450;-75
2023/01/27 11:39:58;;;;;;;15.40;11.17;;;;;;;;;;5059045;28;20456;-75
2023/01/27 11:42:28;;;;;;;15.33;11.10;;;;;;;;;;5070396;28;20456;-75
2023/01/27 11:44:57;;;;;;;16.20;11.40;;;;;;;;;;5070467;28;20467;-75
2023/01/27 11:47:24;;;;;;;16.40;10.40;;;;;;;;;;5070566;28;20452;-74
2023/01/27 11:49:52;;;;;;;14.60;10.47;;;;;;;;;;5070905;28;20491;-75
2023/01/27 11:52:22;;;;;;;16.30;10.50;;;;;;;;;;5070653;28;20437;-75
2023/01/27 11:54:51;;;;;;;16.63;11.00;;;;;;;;;;5070614;28;20536;-75
2023/01/27 11:57:20;;;;;;;14.40;10.37;;;;;;;;;;5070870;28;20451;-76
2023/01/27 11:59:47;;;;;;;14.47;10.30;;;;;;;;;;5055511;28;20488;-75
2023/01/27 12:02:23;;;;;;;13.53;10.30;;;;;;;;;;5050370;28;20477;-74
2023/01/27 12:04:52;;;;;;;15.30;11.10;;;;;;;;;;5051396;28;20525;-75
2023/01/27 12:07:24;;;;;;;14.20;9.87;;;;;;;;;;5050947;28;20874;-76
2023/01/27 12:09:51;;;;;;;14.30;11.27;;;;;;;;;;5051283;28;21007;-76
2023/01/27 12:12:23;;;;;;;19.40;12.73;;;;;;;;;;5050915;28;20449;-76
2023/01/27 12:14:52;;;;;;;14.03;10.77;;;;;;;;;;5050631;28;20468;-76
2023/01/27 12:17:22;;;;;;;16.97;11.87;;;;;;;;;;5051175;28;20453;-76
2023/01/27 12:19:49;;;;;;;15.60;11.90;;;;;;;;;;5049657;28;20462;-75
2023/01/27 12:22:21;;;;;;;16.87;11.90;;;;;;;;;;5050628;28;21000;-75
2023/01/27 12:24:51;;;;;;;19.97;12.00;;;;;;;;;;5050995;28;20440;-75
2023/01/27 12:27:21;;;;;;;20.20;12.63;;;;;;;;;;5050989;28;20445;-75
2023/01/27 12:29:52;;;;;;;17.77;12.97;;;;;;;;;;5051182;28;20981;-75
2023/01/27 12:32:22;;;;;;;17.60;12.20;;;;;;;;;;5051337;28;20430;-75
2023/01/27 12:34:50;;;;;;;17.57;12.30;;;;;;;;;;5051367;28;20449;-75
2023/01/27 12:37:22;;;;;;;19.50;13.30;;;;;;;;;;5050513;28;20930;-75
2023/01/27 12:39:55;;;;;;;24.67;11.50;;;;;;;;;;5050452;28;20477;-75
2023/01/27 12:42:36;;;;;;;20.10;13.37;;;;;;;;;;5050915;28;20430;-75
2023/01/27 12:45:17;;;;;;;23.20;13.23;;;;;;;;;;5050031;28;20441;-75
2023/01/27 12:47:55;;;;;;;19.33;13.40;;;;;;;;;;5050288;28;20913;-75
2023/01/27 12:50:24;;;;;;;17.37;13.10;;;;;;;;;;5051432;28;20484;-75
2023/01/27 12:52:55;;;;;;;17.40;13.07;;;;;;;;;;5050026;28;20647;-75
2023/01/27 12:55:30;;;;;;;20.67;14.23;;;;;;;;;;5053386;28;20941;-75
2023/01/27 12:57:58;;;;;;;17.17;12.47;;;;;;;;;;5056293;28;20455;-75
2023/01/27 13:00:25;;;;;;;19.40;13.33;;;;;;;;;;5050194;28;21007;-76
2023/01/27 13:02:53;;;;;;;21.90;13.80;;;;;;;;;;5050754;28;20456;-76
2023/01/27 13:05:20;;;;;;;19.20;12.83;;;;;;;;;;5050614;28;20443;-75
2023/01/27 13:07:50;;;;;;;18.73;13.00;;;;;;;;;;5049988;28;20953;-76
2023/01/27 13:10:19;;;;;;;19.13;13.20;;;;;;;;;;5050112;28;20538;-75
2023/01/27 13:12:50;;;;;;;24.33;14.00;;;;;;;;;;5049973;28;20492;-76
2023/01/27 13:15:18;;;;;;;23.83;15.60;;;;;;;;;;5070642;28;20430;-75
2023/01/27 13:17:47;;;;;;;22.20;15.83;;;;;;;;;;5094486;28;20445;-75
2023/01/27 13:20:18;;;;;;;20.67;15.13;;;;;;;;;;5095322;28;20453;-75
2023/01/27 13:22:47;;;;;;;18.70;15.27;;;;;;;;;;5084710;28;20498;-75
2023/01/27 13:25:18;;;;;;;23.93;15.27;;;;;;;;;;5072303;28;20477;-75
2023/01/27 13:27:46;;;;;;;21.83;13.83;;;;;;;;;;5071252;28;20445;-75
2023/01/27 13:30:20;;;;;;;20.70;14.10;;;;;;;;;;5071146;28;20503;-75
2023/01/27 13:32:49;;;;;;;22.57;16.40;;;;;;;;;;5068576;28;20449;-75
2023/01/27 13:35:19;;;;;;;23.10;14.77;;;;;;;;;;5068713;28;20444;-74
2023/01/27 13:37:49;;;;;;;23.80;16.70;;;;;;;;;;5069259;28;20441;-75
2023/01/27 13:40:18;;;;;;;23.57;16.57;;;;;;;;;;5069454;28;20449;-75
2023/01/27 13:42:48;;;;;;;21.03;16.23;;;;;;;;;;5069373;28;20447;-75
2023/01/27 13:45:19;;;;;;;26.20;17.23;;;;;;;;;;5070841;28;20457;-74
2023/01/27 13:47:49;;;;;;;25.10;15.70;;;;;;;;;;5071267;28;20452;-75
2023/01/27 13:50:22;;;;;;;25.60;16.83;;;;;;;;;;5069518;28;20625;-75
2023/01/27 13:52:51;;;;;;;21.87;15.70;;;;;;;;;;5069459;28;20449;-75
2023/01/27 13:55:21;;;;;;;23.67;16.37;;;;;;;;;;5069797;28;20447;-74
2023/01/27 13:57:53;;;;;;;22.30;15.53;;;;;;;;;;5070015;28;20499;-75
2023/01/27 14:00:26;;;;;;;23.77;16.27;;;;;;;;;;5070624;28;20819;-75
2023/01/27 14:03:04;;;;;;;22.87;15.57;;;;;;;;;;5070969;28;20449;-74
2023/01/27 14:05:39;;;;;;;22.17;15.87;;;;;;;;;;5073495;28;20425;-74
2023/01/27 14:08:12;;;;;;;23.43;16.07;;;;;;;;;;5075327;28;20514;-75
2023/01/27 14:10:41;;;;;;;20.83;15.63;;;;;;;;;;5070367;28;20572;-74
2023/01/27 14:13:15;;;;;;;22.10;15.30;;;;;;;;;;5069436;28;20843;-75
2023/01/27 14:15:48;;;;;;;26.30;16.57;;;;;;;;;;5061811;28;20441;-74
2023/01/27 14:18:17;;;;;;;22.00;15.57;;;;;;;;;;5049366;28;20912;-74
2023/01/27 14:20:52;;;;;;;20.97;15.43;;;;;;;;;;5049230;28;20463;-74
2023/01/27 14:23:24;;;;;;;23.70;17.00;;;;;;;;;;5049422;28;20433;-74
2023/01/27 14:25:56;;;;;;;22.07;15.23;;;;;;;;;;5051596;28;20894;-74
2023/01/27 14:28:27;;;;;;;23.33;16.27;;;;;;;;;;5053328;28;20440;-74
2023/01/27 14:30:57;;;;;;;25.47;15.30;;;;;;;;;;5053367;28;20477;-75
2023/01/27 14:33:29;;;;;;;18.90;13.20;;;;;;;;;;5053451;28;20441;-75
2023/01/27 14:35:59;;;;;;;23.83;15.10;;;;;;;;;;5053422;28;20442;-75
2023/01/27 14:38:31;;;;;;;18.53;13.97;;;;;;;;;;5053318;28;20845;-74
2023/01/27 14:41:05;;;;;;;22.97;16.47;;;;;;;;;;5052677;28;20829;-75
2023/01/27 14:43:35;;;;;;;20.60;14.90;;;;;;;;;;5052437;28;20433;-75
2023/01/27 14:46:09;;;;;;;21.80;15.40;;;;;;;;;;5052518;28;20449;-75
2023/01/27 14:48:41;;;;;;;21.40;14.17;;;;;;;;;;5052579;28;20454;-75
2023/01/27 14:51:13;;;;;;;16.80;14.07;;;;;;;;;;5052306;28;20496;-74
2023/01/27 14:53:48;;;;;;;18.80;13.93;;;;;;;;;;5052321;28;20441;-75
2023/01/27 14:56:18;;;;;;;19.87;14.83;;;;;;;;;;5052416;28;20533;-75